sensor_id;sensor_type;location;lat;lon;timestamp;temperature;humidity
43884;DHT22;71973;52.018;5.810;2024-01-15T00:01:12;19.20;43.80
43884;DHT22;71973;52.018;5.810;2024-01-15T00:03:37;19.20;43.90
43884;DHT22;71973;52.018;5.810;2024-01-15T00:06:03;19.10;43.90
43884;DHT22;71973;52.018;5.810;2024-01-15T00:08:29;19.00;43.90
43884;DHT22;71973;52.018;5.810;2024-01-15T00:10:54;19.00;44.00
43884;DHT22;71973;52.018;5.810;2024-01-15T00:13:20;18.90;44.00
43884;DHT22;71973;52.018;5.810;2024-01-15T00:15:45;18.80;44.00
43884;DHT22;71973;52.018;5.810;2024-01-15T00:18:11;18.80;44.10
43884;DHT22;71973;52.018;5.810;2024-01-15T00:20:36;18.70;44.10
43884;DHT22;71973;52.018;5.810;2024-01-15T00:23:02;18.70;44.10
43884;DHT22;71973;52.018;5.810;2024-01-15T00:25:27;18.60;44.20
43884;DHT22;71973;52.018;5.810;2024-01-15T00:27:53;18.60;44.30
43884;DHT22;71973;52.018;5.810;2024-01-15T00:30:18;18.50;44.30
43884;DHT22;71973;52.018;5.810;2024-01-15T00:32:44;18.50;44.30
43884;DHT22;71973;52.018;5.810;2024-01-15T00:35:09;18.40;44.30
43884;DHT22;71973;52.018;5.810;2024-01-15T00:37:35;18.40;44.30
43884;DHT22;71973;52.018;5.810;2024-01-15T00:40:00;18.30;44.40
43884;DHT22;71973;52.018;5.810;2024-01-15T00:42:26;18.30;44.40
43884;DHT22;71973;52.018;5.810;2024-01-15T00:44:51;18.20;44.40
43884;DHT22;71973;52.018;5.810;2024-01-15T00:47:18;18.20;44.50
43884;DHT22;71973;52.018;5.810;2024-01-15T00:49:43;18.20;44.50
43884;DHT22;71973;52.018;5.810;2024-01-15T00:52:09;18.10;44.60
43884;DHT22;71973;52.018;5.810;2024-01-15T00:54:34;18.10;44.60
43884;DHT22;71973;52.018;5.810;2024-01-15T00:57:00;18.00;44.60
43884;DHT22;71973;52.018;5.810;2024-01-15T00:59:25;18.00;44.70
43884;DHT22;71973;52.018;5.810;2024-01-15T01:01:51;17.90;44.70
43884;DHT22;71973;52.018;5.810;2024-01-15T01:04:16;17.90;44.70
43884;DHT22;71973;52.018;5.810;2024-01-15T01:06:42;17.90;44.70
43884;DHT22;71973;52.018;5.810;2024-01-15T01:09:07;17.90;44.70
43884;DHT22;71973;52.018;5.810;2024-01-15T01:11:33;17.80;44.70
43884;DHT22;71973;52.018;5.810;2024-01-15T01:13:58;17.70;44.80
43884;DHT22;71973;52.018;5.810;2024-01-15T01:16:24;17.70;44.80
43884;DHT22;71973;52.018;5.810;2024-01-15T01:18:49;17.70;44.80
43884;DHT22;71973;52.018;5.810;2024-01-15T01:21:14;17.60;44.80
43884;DHT22;71973;52.018;5.810;2024-01-15T01:23:40;17.60;44.90
43884;DHT22;71973;52.018;5.810;2024-01-15T01:26:05;17.60;44.90
43884;DHT22;71973;52.018;5.810;2024-01-15T01:28:31;17.50;44.90
43884;DHT22;71973;52.018;5.810;2024-01-15T01:30:57;17.50;44.90
43884;DHT22;71973;52.018;5.810;2024-01-15T01:33:22;17.50;45.00
43884;DHT22;71973;52.018;5.810;2024-01-15T01:35:48;17.40;45.00
43884;DHT22;71973;52.018;5.810;2024-01-15T01:38:13;17.40;45.00
43884;DHT22;71973;52.018;5.810;2024-01-15T01:40:39;17.40;45.00
43884;DHT22;71973;52.018;5.810;2024-01-15T01:43:04;17.40;45.00
43884;DHT22;71973;52.018;5.810;2024-01-15T01:45:30;17.30;45.00
43884;DHT22;71973;52.018;5.810;2024-01-15T01:47:55;17.30;45.00
43884;DHT22;71973;52.018;5.810;2024-01-15T01:50:21;17.20;45.00
43884;DHT22;71973;52.018;5.810;2024-01-15T01:52:47;17.30;45.10
43884;DHT22;71973;52.018;5.810;2024-01-15T01:55:12;17.20;45.10
43884;DHT22;71973;52.018;5.810;2024-01-15T01:57:38;17.20;45.10
43884;DHT22;71973;52.018;5.810;2024-01-15T02:00:04;17.20;45.10
43884;DHT22;71973;52.018;5.810;2024-01-15T02:02:30;17.10;45.10
43884;DHT22;71973;52.018;5.810;2024-01-15T02:04:56;17.10;45.10
43884;DHT22;71973;52.018;5.810;2024-01-15T02:07:22;17.00;45.10
43884;DHT22;71973;52.018;5.810;2024-01-15T02:09:48;17.10;45.20
43884;DHT22;71973;52.018;5.810;2024-01-15T02:12:14;17.00;45.20
43884;DHT22;71973;52.018;5.810;2024-01-15T02:14:40;17.00;45.30
43884;DHT22;71973;52.018;5.810;2024-01-15T02:17:05;17.00;45.30
43884;DHT22;71973;52.018;5.810;2024-01-15T02:19:31;17.00;45.30
43884;DHT22;71973;52.018;5.810;2024-01-15T02:21:56;16.90;45.20
43884;DHT22;71973;52.018;5.810;2024-01-15T02:24:22;16.80;45.30
43884;DHT22;71973;52.018;5.810;2024-01-15T02:26:48;16.80;45.30
43884;DHT22;71973;52.018;5.810;2024-01-15T02:29:13;16.80;45.30
43884;DHT22;71973;52.018;5.810;2024-01-15T02:31:40;16.80;45.40
43884;DHT22;71973;52.018;5.810;2024-01-15T02:34:05;16.70;45.40
43884;DHT22;71973;52.018;5.810;2024-01-15T02:36:30;16.70;45.40
43884;DHT22;71973;52.018;5.810;2024-01-15T02:38:56;16.70;45.40
43884;DHT22;71973;52.018;5.810;2024-01-15T02:41:22;16.70;45.40
43884;DHT22;71973;52.018;5.810;2024-01-15T02:43:47;16.60;45.40
43884;DHT22;71973;52.018;5.810;2024-01-15T02:46:12;16.60;45.40
43884;DHT22;71973;52.018;5.810;2024-01-15T02:48:38;16.60;45.50
43884;DHT22;71973;52.018;5.810;2024-01-15T02:51:03;16.50;45.50
43884;DHT22;71973;52.018;5.810;2024-01-15T02:53:29;16.50;45.50
43884;DHT22;71973;52.018;5.810;2024-01-15T02:55:54;16.50;45.50
43884;DHT22;71973;52.018;5.810;2024-01-15T02:58:20;16.60;45.60
43884;DHT22;71973;52.018;5.810;2024-01-15T03:00:46;16.50;45.60
43884;DHT22;71973;52.018;5.810;2024-01-15T03:03:11;16.50;45.60
43884;DHT22;71973;52.018;5.810;2024-01-15T03:05:37;16.40;45.60
43884;DHT22;71973;52.018;5.810;2024-01-15T03:08:03;16.40;45.60
43884;DHT22;71973;52.018;5.810;2024-01-15T03:10:28;16.40;45.70
43884;DHT22;71973;52.018;5.810;2024-01-15T03:12:54;16.30;45.70
43884;DHT22;71973;52.018;5.810;2024-01-15T03:15:19;16.30;45.70
43884;DHT22;71973;52.018;5.810;2024-01-15T03:17:44;16.30;45.70
43884;DHT22;71973;52.018;5.810;2024-01-15T03:20:10;16.30;45.70
43884;DHT22;71973;52.018;5.810;2024-01-15T03:22:36;16.30;45.80
43884;DHT22;71973;52.018;5.810;2024-01-15T03:25:01;16.20;45.80
43884;DHT22;71973;52.018;5.810;2024-01-15T03:27:27;16.20;45.80
43884;DHT22;71973;52.018;5.810;2024-01-15T03:29:52;16.10;45.80
43884;DHT22;71973;52.018;5.810;2024-01-15T03:32:18;16.10;45.80
43884;DHT22;71973;52.018;5.810;2024-01-15T03:34:44;16.10;45.90
43884;DHT22;71973;52.018;5.810;2024-01-15T03:37:11;16.10;45.90
43884;DHT22;71973;52.018;5.810;2024-01-15T03:39:36;16.10;45.90
43884;DHT22;71973;52.018;5.810;2024-01-15T03:42:02;16.10;46.00
43884;DHT22;71973;52.018;5.810;2024-01-15T03:44:27;16.10;46.00
43884;DHT22;71973;52.018;5.810;2024-01-15T03:46:53;16.00;46.00
43884;DHT22;71973;52.018;5.810;2024-01-15T03:49:18;16.00;46.00
43884;DHT22;71973;52.018;5.810;2024-01-15T03:51:44;16.00;46.00
43884;DHT22;71973;52.018;5.810;2024-01-15T03:54:09;15.90;46.00
43884;DHT22;71973;52.018;5.810;2024-01-15T03:56:35;15.90;46.10
43884;DHT22;71973;52.018;5.810;2024-01-15T03:59:00;15.90;46.00
43884;DHT22;71973;52.018;5.810;2024-01-15T04:01:26;15.90;46.10
43884;DHT22;71973;52.018;5.810;2024-01-15T04:03:51;15.90;46.10
43884;DHT22;71973;52.018;5.810;2024-01-15T04:06:17;15.80;46.10
43884;DHT22;71973;52.018;5.810;2024-01-15T04:08:42;15.80;46.10
43884;DHT22;71973;52.018;5.810;2024-01-15T04:11:08;15.80;46.20
43884;DHT22;71973;52.018;5.810;2024-01-15T04:13:33;15.80;46.30
43884;DHT22;71973;52.018;5.810;2024-01-15T04:15:59;15.70;46.20
43884;DHT22;71973;52.018;5.810;2024-01-15T04:18:25;15.80;46.30
43884;DHT22;71973;52.018;5.810;2024-01-15T04:20:51;15.70;46.20
43884;DHT22;71973;52.018;5.810;2024-01-15T04:23:16;15.70;46.30
43884;DHT22;71973;52.018;5.810;2024-01-15T04:25:42;15.70;46.30
43884;DHT22;71973;52.018;5.810;2024-01-15T04:28:08;15.70;46.30
43884;DHT22;71973;52.018;5.810;2024-01-15T04:30:34;15.60;46.30
43884;DHT22;71973;52.018;5.810;2024-01-15T04:32:59;15.60;46.30
43884;DHT22;71973;52.018;5.810;2024-01-15T04:35:25;15.60;46.30
43884;DHT22;71973;52.018;5.810;2024-01-15T04:37:50;15.60;46.30
43884;DHT22;71973;52.018;5.810;2024-01-15T04:40:16;15.60;46.40
43884;DHT22;71973;52.018;5.810;2024-01-15T04:42:41;15.50;46.40
43884;DHT22;71973;52.018;5.810;2024-01-15T04:45:07;15.50;46.40
43884;DHT22;71973;52.018;5.810;2024-01-15T04:47:32;15.50;46.40
43884;DHT22;71973;52.018;5.810;2024-01-15T04:49:58;15.50;46.40
43884;DHT22;71973;52.018;5.810;2024-01-15T04:52:23;15.50;46.40
43884;DHT22;71973;52.018;5.810;2024-01-15T04:54:49;15.50;46.40
43884;DHT22;71973;52.018;5.810;2024-01-15T04:57:15;15.50;46.40
43884;DHT22;71973;52.018;5.810;2024-01-15T04:59:40;15.50;46.40
43884;DHT22;71973;52.018;5.810;2024-01-15T05:02:06;15.50;46.40
43884;DHT22;71973;52.018;5.810;2024-01-15T05:04:31;15.40;46.40
43884;DHT22;71973;52.018;5.810;2024-01-15T05:06:58;15.40;46.40
43884;DHT22;71973;52.018;5.810;2024-01-15T05:09:23;15.30;46.40
43884;DHT22;71973;52.018;5.810;2024-01-15T05:11:49;15.30;46.40
43884;DHT22;71973;52.018;5.810;2024-01-15T05:14:14;15.40;46.50
43884;DHT22;71973;52.018;5.810;2024-01-15T05:16:44;15.30;46.40
43884;DHT22;71973;52.018;5.810;2024-01-15T05:19:11;15.30;46.40
43884;DHT22;71973;52.018;5.810;2024-01-15T05:21:37;15.30;46.50
43884;DHT22;71973;52.018;5.810;2024-01-15T05:24:02;15.30;46.50
43884;DHT22;71973;52.018;5.810;2024-01-15T05:26:28;15.30;46.50
43884;DHT22;71973;52.018;5.810;2024-01-15T05:28:53;15.20;46.50
43884;DHT22;71973;52.018;5.810;2024-01-15T05:31:19;15.20;46.50
43884;DHT22;71973;52.018;5.810;2024-01-15T05:33:44;15.20;46.50
43884;DHT22;71973;52.018;5.810;2024-01-15T05:36:10;15.10;46.40
43884;DHT22;71973;52.018;5.810;2024-01-15T05:38:35;15.20;46.50
43884;DHT22;71973;52.018;5.810;2024-01-15T05:41:01;15.20;46.50
43884;DHT22;71973;52.018;5.810;2024-01-15T05:43:26;15.20;46.60
43884;DHT22;71973;52.018;5.810;2024-01-15T05:45:52;15.10;46.50
43884;DHT22;71973;52.018;5.810;2024-01-15T05:48:17;15.20;46.60
43884;DHT22;71973;52.018;5.810;2024-01-15T05:50:43;15.10;46.60
43884;DHT22;71973;52.018;5.810;2024-01-15T05:53:08;15.10;46.60
43884;DHT22;71973;52.018;5.810;2024-01-15T05:55:35;15.10;46.60
43884;DHT22;71973;52.018;5.810;2024-01-15T05:58:00;15.00;46.50
43884;DHT22;71973;52.018;5.810;2024-01-15T06:00:26;15.10;46.60
43884;DHT22;71973;52.018;5.810;2024-01-15T06:02:51;15.10;46.60
43884;DHT22;71973;52.018;5.810;2024-01-15T06:05:16;15.00;46.60
43884;DHT22;71973;52.018;5.810;2024-01-15T06:07:42;15.00;46.60
43884;DHT22;71973;52.018;5.810;2024-01-15T06:10:07;15.00;46.80
43884;DHT22;71973;52.018;5.810;2024-01-15T06:12:33;15.10;46.80
43884;DHT22;71973;52.018;5.810;2024-01-15T06:14:59;15.20;47.00
43884;DHT22;71973;52.018;5.810;2024-01-15T06:17:24;15.40;46.80
43884;DHT22;71973;52.018;5.810;2024-01-15T06:19:50;15.70;46.30
43884;DHT22;71973;52.018;5.810;2024-01-15T06:22:15;16.10;45.40
43884;DHT22;71973;52.018;5.810;2024-01-15T06:24:41;16.20;45.00
43884;DHT22;71973;52.018;5.810;2024-01-15T06:27:06;16.30;44.80
43884;DHT22;71973;52.018;5.810;2024-01-15T06:29:32;16.60;44.50
43884;DHT22;71973;52.018;5.810;2024-01-15T06:31:57;16.70;44.40
43884;DHT22;71973;52.018;5.810;2024-01-15T06:34:23;16.90;44.10
43884;DHT22;71973;52.018;5.810;2024-01-15T06:36:48;17.00;43.90
43884;DHT22;71973;52.018;5.810;2024-01-15T06:39:14;17.00;43.90
43884;DHT22;71973;52.018;5.810;2024-01-15T06:41:39;17.10;43.70
43884;DHT22;71973;52.018;5.810;2024-01-15T06:44:11;17.00;43.80
43884;DHT22;71973;52.018;5.810;2024-01-15T06:46:41;17.10;43.60
43884;DHT22;71973;52.018;5.810;2024-01-15T06:49:07;17.10;43.50
43884;DHT22;71973;52.018;5.810;2024-01-15T06:51:32;17.10;43.50
43884;DHT22;71973;52.018;5.810;2024-01-15T06:53:58;17.00;43.70
43884;DHT22;71973;52.018;5.810;2024-01-15T06:56:23;17.00;44.00
43884;DHT22;71973;52.018;5.810;2024-01-15T06:58:49;16.90;43.90
43884;DHT22;71973;52.018;5.810;2024-01-15T07:01:14;16.90;43.80
43884;DHT22;71973;52.018;5.810;2024-01-15T07:03:40;16.80;43.70
43884;DHT22;71973;52.018;5.810;2024-01-15T07:06:05;16.90;43.60
43884;DHT22;71973;52.018;5.810;2024-01-15T07:08:31;16.90;43.60
43884;DHT22;71973;52.018;5.810;2024-01-15T07:10:56;16.90;43.60
43884;DHT22;71973;52.018;5.810;2024-01-15T07:13:22;16.80;43.70
43884;DHT22;71973;52.018;5.810;2024-01-15T07:15:47;16.80;43.80
43884;DHT22;71973;52.018;5.810;2024-01-15T07:18:13;16.80;43.80
43884;DHT22;71973;52.018;5.810;2024-01-15T07:20:38;16.80;43.80
43884;DHT22;71973;52.018;5.810;2024-01-15T07:23:04;16.80;43.80
43884;DHT22;71973;52.018;5.810;2024-01-15T07:25:29;16.90;43.70
43884;DHT22;71973;52.018;5.810;2024-01-15T07:27:55;17.00;43.60
43884;DHT22;71973;52.018;5.810;2024-01-15T07:30:21;17.10;43.60
43884;DHT22;71973;52.018;5.810;2024-01-15T07:32:47;17.20;43.40
43884;DHT22;71973;52.018;5.810;2024-01-15T07:35:13;17.30;43.40
43884;DHT22;71973;52.018;5.810;2024-01-15T07:37:39;17.30;43.20
43884;DHT22;71973;52.018;5.810;2024-01-15T07:40:04;17.30;43.20
43884;DHT22;71973;52.018;5.810;2024-01-15T07:42:31;17.20;43.20
43884;DHT22;71973;52.018;5.810;2024-01-15T07:44:57;17.20;43.30
43884;DHT22;71973;52.018;5.810;2024-01-15T07:47:22;17.30;43.50
43884;DHT22;71973;52.018;5.810;2024-01-15T07:49:48;17.20;43.80
43884;DHT22;71973;52.018;5.810;2024-01-15T07:52:13;17.20;43.90
43884;DHT22;71973;52.018;5.810;2024-01-15T07:54:39;17.10;43.90
43884;DHT22;71973;52.018;5.810;2024-01-15T07:57:04;17.00;44.30
43884;DHT22;71973;52.018;5.810;2024-01-15T07:59:30;17.00;44.30
43884;DHT22;71973;52.018;5.810;2024-01-15T08:01:55;17.00;44.40
43884;DHT22;71973;52.018;5.810;2024-01-15T08:04:21;17.10;44.20
43884;DHT22;71973;52.018;5.810;2024-01-15T08:06:49;17.40;43.70
43884;DHT22;71973;52.018;5.810;2024-01-15T08:09:15;17.40;43.40
43884;DHT22;71973;52.018;5.810;2024-01-15T08:11:40;17.30;43.50
43884;DHT22;71973;52.018;5.810;2024-01-15T08:14:09;17.20;43.70
43884;DHT22;71973;52.018;5.810;2024-01-15T08:16:35;17.20;43.90
43884;DHT22;71973;52.018;5.810;2024-01-15T08:19:00;17.00;43.90
43884;DHT22;71973;52.018;5.810;2024-01-15T08:21:26;17.00;44.10
43884;DHT22;71973;52.018;5.810;2024-01-15T08:23:58;17.00;44.10
43884;DHT22;71973;52.018;5.810;2024-01-15T08:26:24;16.90;44.10
43884;DHT22;71973;52.018;5.810;2024-01-15T08:28:50;16.90;44.20
43884;DHT22;71973;52.018;5.810;2024-01-15T08:31:15;16.80;44.20
43884;DHT22;71973;52.018;5.810;2024-01-15T08:33:41;16.80;44.20
43884;DHT22;71973;52.018;5.810;2024-01-15T08:36:06;17.10;43.80
43884;DHT22;71973;52.018;5.810;2024-01-15T08:38:31;17.30;43.60
43884;DHT22;71973;52.018;5.810;2024-01-15T08:40:57;17.40;43.70
43884;DHT22;71973;52.018;5.810;2024-01-15T08:43:25;17.40;43.80
43884;DHT22;71973;52.018;5.810;2024-01-15T08:45:51;17.20;43.80
43884;DHT22;71973;52.018;5.810;2024-01-15T08:48:16;17.10;44.00
43884;DHT22;71973;52.018;5.810;2024-01-15T08:50:42;17.00;44.20
43884;DHT22;71973;52.018;5.810;2024-01-15T08:53:08;16.90;44.40
43884;DHT22;71973;52.018;5.810;2024-01-15T08:55:33;16.80;44.40
43884;DHT22;71973;52.018;5.810;2024-01-15T08:57:59;16.70;44.50
43884;DHT22;71973;52.018;5.810;2024-01-15T09:00:24;16.70;44.60
43884;DHT22;71973;52.018;5.810;2024-01-15T09:02:50;16.60;44.60
43884;DHT22;71973;52.018;5.810;2024-01-15T09:05:15;16.60;44.60
43884;DHT22;71973;52.018;5.810;2024-01-15T09:07:41;16.60;44.70
43884;DHT22;71973;52.018;5.810;2024-01-15T09:10:06;16.50;44.80
43884;DHT22;71973;52.018;5.810;2024-01-15T09:12:32;16.50;44.80
43884;DHT22;71973;52.018;5.810;2024-01-15T09:14:57;16.40;44.70
43884;DHT22;71973;52.018;5.810;2024-01-15T09:17:23;16.30;45.00
43884;DHT22;71973;52.018;5.810;2024-01-15T09:19:49;16.20;45.30
43884;DHT22;71973;52.018;5.810;2024-01-15T09:22:14;16.10;45.40
43884;DHT22;71973;52.018;5.810;2024-01-15T09:24:44;16.00;45.50
43884;DHT22;71973;52.018;5.810;2024-01-15T09:27:09;16.00;45.70
43884;DHT22;71973;52.018;5.810;2024-01-15T09:29:35;15.90;45.70
43884;DHT22;71973;52.018;5.810;2024-01-15T09:32:03;15.80;45.70
43884;DHT22;71973;52.018;5.810;2024-01-15T09:34:29;15.80;45.70
43884;DHT22;71973;52.018;5.810;2024-01-15T09:36:55;16.00;45.50
43884;DHT22;71973;52.018;5.810;2024-01-15T09:39:20;16.10;45.10
43884;DHT22;71973;52.018;5.810;2024-01-15T09:41:46;16.20;45.10
43884;DHT22;71973;52.018;5.810;2024-01-15T09:44:13;16.20;45.00
43884;DHT22;71973;52.018;5.810;2024-01-15T09:46:39;16.30;44.80
43884;DHT22;71973;52.018;5.810;2024-01-15T09:49:05;16.40;44.70
43884;DHT22;71973;52.018;5.810;2024-01-15T09:51:31;16.50;44.40
43884;DHT22;71973;52.018;5.810;2024-01-15T09:53:57;16.50;44.50
43884;DHT22;71973;52.018;5.810;2024-01-15T09:56:23;16.40;44.50
43884;DHT22;71973;52.018;5.810;2024-01-15T09:58:48;16.50;44.50
43884;DHT22;71973;52.018;5.810;2024-01-15T10:01:15;16.50;44.40
43884;DHT22;71973;52.018;5.810;2024-01-15T10:03:42;16.50;44.50
43884;DHT22;71973;52.018;5.810;2024-01-15T10:06:07;16.60;44.30
43884;DHT22;71973;52.018;5.810;2024-01-15T10:08:34;16.70;44.10
43884;DHT22;71973;52.018;5.810;2024-01-15T10:11:01;16.80;44.00
43884;DHT22;71973;52.018;5.810;2024-01-15T10:13:26;17.00;43.70
43884;DHT22;71973;52.018;5.810;2024-01-15T10:15:52;17.20;43.30
43884;DHT22;71973;52.018;5.810;2024-01-15T10:18:18;17.30;43.30
43884;DHT22;71973;52.018;5.810;2024-01-15T10:20:43;17.40;43.10
43884;DHT22;71973;52.018;5.810;2024-01-15T10:23:09;17.50;42.60
43884;DHT22;71973;52.018;5.810;2024-01-15T10:25:35;17.60;42.70
43884;DHT22;71973;52.018;5.810;2024-01-15T10:28:01;17.50;42.80
43884;DHT22;71973;52.018;5.810;2024-01-15T10:30:27;17.40;43.00
43884;DHT22;71973;52.018;5.810;2024-01-15T10:32:59;17.30;43.10
43884;DHT22;71973;52.018;5.810;2024-01-15T10:35:31;17.30;43.20
43884;DHT22;71973;52.018;5.810;2024-01-15T10:37:58;17.30;43.20
43884;DHT22;71973;52.018;5.810;2024-01-15T10:40:23;17.30;43.30
43884;DHT22;71973;52.018;5.810;2024-01-15T10:42:49;17.30;43.30
43884;DHT22;71973;52.018;5.810;2024-01-15T10:45:15;17.30;43.30
43884;DHT22;71973;52.018;5.810;2024-01-15T10:47:40;17.30;43.20
43884;DHT22;71973;52.018;5.810;2024-01-15T10:50:06;17.40;43.10
43884;DHT22;71973;52.018;5.810;2024-01-15T10:52:41;17.40;43.10
43884;DHT22;71973;52.018;5.810;2024-01-15T10:55:08;17.50;43.00
43884;DHT22;71973;52.018;5.810;2024-01-15T10:57:34;17.40;43.00
43884;DHT22;71973;52.018;5.810;2024-01-15T11:00:00;17.40;43.10
43884;DHT22;71973;52.018;5.810;2024-01-15T11:02:28;17.30;43.10
43884;DHT22;71973;52.018;5.810;2024-01-15T11:04:54;17.20;43.10
43884;DHT22;71973;52.018;5.810;2024-01-15T11:07:21;17.20;43.00
43884;DHT22;71973;52.018;5.810;2024-01-15T11:09:47;17.30;43.20
43884;DHT22;71973;52.018;5.810;2024-01-15T11:12:12;17.20;43.10
43884;DHT22;71973;52.018;5.810;2024-01-15T11:14:42;17.30;43.20
43884;DHT22;71973;52.018;5.810;2024-01-15T11:17:10;17.40;43.20
43884;DHT22;71973;52.018;5.810;2024-01-15T11:19:37;17.50;43.20
43884;DHT22;71973;52.018;5.810;2024-01-15T11:22:06;17.70;42.90
43884;DHT22;71973;52.018;5.810;2024-01-15T11:24:38;17.70;42.80
43884;DHT22;71973;52.018;5.810;2024-01-15T11:27:04;17.80;42.80
43884;DHT22;71973;52.018;5.810;2024-01-15T11:34:21;17.70;43.20
43884;DHT22;71973;52.018;5.810;2024-01-15T11:41:56;17.60;43.50
43884;DHT22;71973;52.018;5.810;2024-01-15T11:44:22;17.60;43.70
43884;DHT22;71973;52.018;5.810;2024-01-15T11:47:00;17.50;43.90
43884;DHT22;71973;52.018;5.810;2024-01-15T11:51:56;17.30;43.90
43884;DHT22;71973;52.018;5.810;2024-01-15T11:54:22;17.30;43.90
43884;DHT22;71973;52.018;5.810;2024-01-15T11:56:49;17.20;43.80
43884;DHT22;71973;52.018;5.810;2024-01-15T11:59:14;17.20;43.80
43884;DHT22;71973;52.018;5.810;2024-01-15T12:01:40;17.20;43.80
43884;DHT22;71973;52.018;5.810;2024-01-15T12:04:06;17.20;43.80
43884;DHT22;71973;52.018;5.810;2024-01-15T12:06:31;17.30;43.70
43884;DHT22;71973;52.018;5.810;2024-01-15T12:09:09;17.30;43.40
43884;DHT22;71973;52.018;5.810;2024-01-15T12:11:35;17.30;43.20
43884;DHT22;71973;52.018;5.810;2024-01-15T12:14:01;17.40;43.10
43884;DHT22;71973;52.018;5.810;2024-01-15T12:16:27;17.40;43.00
43884;DHT22;71973;52.018;5.810;2024-01-15T12:18:53;17.40;43.00
43884;DHT22;71973;52.018;5.810;2024-01-15T12:21:18;17.50;43.50
43884;DHT22;71973;52.018;5.810;2024-01-15T12:23:48;17.70;43.40
43884;DHT22;71973;52.018;5.810;2024-01-15T12:26:14;17.60;43.40
43884;DHT22;71973;52.018;5.810;2024-01-15T12:28:40;17.50;43.90
43884;DHT22;71973;52.018;5.810;2024-01-15T12:31:05;17.40;44.10
43884;DHT22;71973;52.018;5.810;2024-01-15T12:33:31;17.30;44.60
43884;DHT22;71973;52.018;5.810;2024-01-15T12:35:56;17.30;44.90
43884;DHT22;71973;52.018;5.810;2024-01-15T12:38:21;17.40;45.10
43884;DHT22;71973;52.018;5.810;2024-01-15T12:40:47;17.50;45.20
43884;DHT22;71973;52.018;5.810;2024-01-15T12:43:13;17.70;45.20
43884;DHT22;71973;52.018;5.810;2024-01-15T12:45:38;17.80;45.10
43884;DHT22;71973;52.018;5.810;2024-01-15T12:48:04;18.00;44.90
43884;DHT22;71973;52.018;5.810;2024-01-15T12:50:30;18.20;44.70
43884;DHT22;71973;52.018;5.810;2024-01-15T12:52:55;18.40;44.50
43884;DHT22;71973;52.018;5.810;2024-01-15T12:55:21;18.60;44.20
43884;DHT22;71973;52.018;5.810;2024-01-15T12:57:47;18.80;44.20
43884;DHT22;71973;52.018;5.810;2024-01-15T13:00:12;18.90;44.00
43884;DHT22;71973;52.018;5.810;2024-01-15T13:02:41;19.10;43.80
43884;DHT22;71973;52.018;5.810;2024-01-15T13:05:07;19.30;43.80
43884;DHT22;71973;52.018;5.810;2024-01-15T13:07:33;19.40;43.60
43884;DHT22;71973;52.018;5.810;2024-01-15T13:09:59;19.50;43.50
43884;DHT22;71973;52.018;5.810;2024-01-15T13:12:24;19.50;43.40
43884;DHT22;71973;52.018;5.810;2024-01-15T13:14:50;19.60;43.30
43884;DHT22;71973;52.018;5.810;2024-01-15T13:17:15;19.60;43.40
43884;DHT22;71973;52.018;5.810;2024-01-15T13:19:41;19.50;43.50
43884;DHT22;71973;52.018;5.810;2024-01-15T13:22:07;19.50;44.20
43884;DHT22;71973;52.018;5.810;2024-01-15T13:24:34;19.50;43.70
43884;DHT22;71973;52.018;5.810;2024-01-15T13:27:02;19.40;43.80
43884;DHT22;71973;52.018;5.810;2024-01-15T13:29:27;19.40;43.90
43884;DHT22;71973;52.018;5.810;2024-01-15T13:31:53;19.40;44.20
43884;DHT22;71973;52.018;5.810;2024-01-15T13:34:18;19.40;44.00
43884;DHT22;71973;52.018;5.810;2024-01-15T13:36:44;19.40;44.00
43884;DHT22;71973;52.018;5.810;2024-01-15T13:39:10;19.40;44.00
43884;DHT22;71973;52.018;5.810;2024-01-15T13:41:35;19.40;43.90
43884;DHT22;71973;52.018;5.810;2024-01-15T13:44:01;19.50;43.90
43884;DHT22;71973;52.018;5.810;2024-01-15T13:46:27;19.50;43.70
43884;DHT22;71973;52.018;5.810;2024-01-15T13:48:52;19.60;43.80
43884;DHT22;71973;52.018;5.810;2024-01-15T13:51:18;19.60;43.60
43884;DHT22;71973;52.018;5.810;2024-01-15T13:53:44;19.70;43.60
43884;DHT22;71973;52.018;5.810;2024-01-15T13:56:09;19.70;43.50
43884;DHT22;71973;52.018;5.810;2024-01-15T13:58:36;19.80;43.30
43884;DHT22;71973;52.018;5.810;2024-01-15T14:01:01;19.90;43.30
43884;DHT22;71973;52.018;5.810;2024-01-15T14:03:29;19.90;43.10
43884;DHT22;71973;52.018;5.810;2024-01-15T14:05:55;20.10;43.10
43884;DHT22;71973;52.018;5.810;2024-01-15T14:08:20;20.10;42.90
43884;DHT22;71973;52.018;5.810;2024-01-15T14:10:45;20.10;42.80
43884;DHT22;71973;52.018;5.810;2024-01-15T14:13:11;20.20;42.80
43884;DHT22;71973;52.018;5.810;2024-01-15T14:15:36;20.30;42.70
43884;DHT22;71973;52.018;5.810;2024-01-15T14:18:02;20.20;42.70
43884;DHT22;71973;52.018;5.810;2024-01-15T14:20:27;20.20;42.70
43884;DHT22;71973;52.018;5.810;2024-01-15T14:22:53;20.10;42.60
43884;DHT22;71973;52.018;5.810;2024-01-15T14:25:19;20.10;42.70
43884;DHT22;71973;52.018;5.810;2024-01-15T14:27:45;20.10;42.70
43884;DHT22;71973;52.018;5.810;2024-01-15T14:30:10;20.10;42.70
43884;DHT22;71973;52.018;5.810;2024-01-15T14:32:38;20.10;42.70
43884;DHT22;71973;52.018;5.810;2024-01-15T14:35:04;20.10;42.60
43884;DHT22;71973;52.018;5.810;2024-01-15T14:37:30;20.10;42.50
43884;DHT22;71973;52.018;5.810;2024-01-15T14:39:56;20.10;42.60
43884;DHT22;71973;52.018;5.810;2024-01-15T14:42:21;20.10;42.40
43884;DHT22;71973;52.018;5.810;2024-01-15T14:44:47;20.20;42.30
43884;DHT22;71973;52.018;5.810;2024-01-15T14:47:12;20.20;42.40
43884;DHT22;71973;52.018;5.810;2024-01-15T14:49:38;20.10;42.40
43884;DHT22;71973;52.018;5.810;2024-01-15T14:52:03;20.10;42.30
43884;DHT22;71973;52.018;5.810;2024-01-15T14:54:29;20.10;42.30
43884;DHT22;71973;52.018;5.810;2024-01-15T14:56:54;20.00;42.30
43884;DHT22;71973;52.018;5.810;2024-01-15T14:59:22;19.90;42.40
43884;DHT22;71973;52.018;5.810;2024-01-15T15:01:47;19.90;42.40
43884;DHT22;71973;52.018;5.810;2024-01-15T15:04:13;19.90;42.50
43884;DHT22;71973;52.018;5.810;2024-01-15T15:06:38;19.90;42.50
43884;DHT22;71973;52.018;5.810;2024-01-15T15:09:04;19.90;42.40
43884;DHT22;71973;52.018;5.810;2024-01-15T15:11:35;19.90;42.40
43884;DHT22;71973;52.018;5.810;2024-01-15T15:14:01;19.90;42.40
43884;DHT22;71973;52.018;5.810;2024-01-15T15:16:26;19.90;42.30
43884;DHT22;71973;52.018;5.810;2024-01-15T15:18:52;19.90;42.20
43884;DHT22;71973;52.018;5.810;2024-01-15T15:21:18;20.00;42.20
43884;DHT22;71973;52.018;5.810;2024-01-15T15:23:43;20.00;42.10
43884;DHT22;71973;52.018;5.810;2024-01-15T15:26:16;19.90;42.00
43884;DHT22;71973;52.018;5.810;2024-01-15T15:28:42;19.90;42.10
43884;DHT22;71973;52.018;5.810;2024-01-15T15:31:07;19.90;42.20
43884;DHT22;71973;52.018;5.810;2024-01-15T15:33:34;19.90;42.20